createdAt,value
2022-09-06T00:00:39.910Z,9.00
2022-09-06T00:05:44.638Z,9.00
2022-09-06T00:10:47.647Z,9.00
2022-09-06T00:15:51.059Z,8.90
2022-09-06T00:20:54.563Z,8.90
2022-09-06T00:26:06.843Z,8.66
2022-09-06T00:31:18.981Z,8.56
2022-09-06T00:36:23.567Z,8.50
2022-09-06T00:41:26.701Z,8.50
2022-09-06T00:46:32.512Z,8.40
2022-09-06T00:51:37.461Z,8.40
2022-09-06T00:56:44.796Z,8.34
2022-09-06T01:01:48.578Z,8.40
2022-09-06T01:07:22.311Z,8.30
2022-09-06T01:13:06.317Z,8.20
2022-09-06T01:18:31.238Z,8.30
2022-09-06T01:24:29.291Z,8.30
2022-09-06T01:29:50.229Z,8.20
2022-09-06T01:35:26.111Z,8.10
2022-09-06T01:40:29.507Z,8.10
2022-09-06T01:45:43.837Z,8.00
2022-09-06T01:51:28.097Z,7.98
2022-09-06T01:56:50.072Z,7.90
2022-09-06T02:01:58.883Z,7.90
2022-09-06T02:07:10.762Z,7.76
2022-09-06T02:12:17.142Z,7.60
2022-09-06T02:17:27.521Z,7.58
2022-09-06T02:22:38.182Z,7.52
2022-09-06T02:27:41.413Z,7.50
2022-09-06T02:32:57.867Z,7.50
2022-09-06T02:38:00.952Z,7.60
2022-09-06T02:43:04.005Z,7.48
2022-09-06T02:48:07.193Z,7.38
2022-09-06T02:53:14.181Z,7.30
2022-09-06T02:58:17.577Z,7.20
2022-09-06T03:03:21.879Z,7.16
2022-09-06T03:08:26.814Z,7.30
2022-09-06T03:13:30.570Z,7.30
2022-09-06T03:18:34.205Z,7.20
2022-09-06T03:23:39.840Z,7.10
2022-09-06T03:28:43.651Z,7.02
2022-09-06T03:33:48.395Z,6.90
2022-09-06T03:38:54.171Z,6.86
2022-09-06T03:43:57.373Z,6.96
2022-09-06T03:49:02.196Z,7.00
2022-09-06T03:54:05.534Z,6.90
2022-09-06T03:59:08.751Z,6.80
2022-09-06T04:04:12.048Z,6.80
2022-09-06T04:09:15.975Z,6.80
2022-09-06T04:14:19.218Z,6.80
2022-09-06T04:19:22.495Z,6.60
2022-09-06T04:24:25.705Z,6.70
2022-09-06T04:29:28.809Z,6.80
2022-09-06T04:34:32.129Z,6.80
2022-09-06T04:39:35.373Z,6.70
2022-09-06T04:44:38.568Z,6.70
2022-09-06T04:49:42.817Z,6.80
2022-09-06T04:54:46.112Z,6.82
2022-09-06T04:59:49.597Z,6.90
2022-09-06T05:04:53.752Z,7.08
2022-09-06T05:09:57.141Z,7.20
2022-09-06T05:15:00.265Z,7.30
2022-09-06T05:20:05.010Z,7.22
2022-09-06T05:25:10.223Z,7.28
2022-09-06T05:30:15.094Z,7.32
2022-09-06T05:35:18.304Z,7.42
2022-09-06T05:40:21.407Z,7.50
2022-09-06T05:45:24.770Z,7.60
2022-09-06T05:50:27.935Z,7.70
2022-09-06T05:55:31.041Z,7.80
2022-09-06T06:00:34.176Z,7.90
2022-09-06T06:05:37.350Z,8.10
2022-09-06T06:10:40.987Z,8.30
2022-09-06T06:15:44.174Z,8.50
2022-09-06T06:20:47.402Z,8.70
2022-09-06T06:25:50.593Z,9.00
2022-09-06T06:30:54.620Z,9.28
2022-09-06T06:36:07.132Z,9.50
2022-09-06T06:41:13.798Z,9.70
2022-09-06T06:46:19.259Z,9.90
2022-09-06T06:51:29.211Z,10.10
2022-09-06T06:56:39.225Z,10.30
2022-09-06T07:01:42.396Z,10.50
2022-09-06T07:12:14.389Z,11.10
2022-09-06T07:17:17.585Z,11.30
2022-09-06T07:22:20.633Z,11.40
2022-09-06T07:32:46.655Z,11.88
2022-09-06T07:37:58.438Z,12.00
2022-09-06T07:43:01.443Z,12.20
2022-09-06T07:48:04.468Z,12.52
2022-09-06T07:53:13.095Z,12.80
2022-09-06T07:58:18.949Z,12.94
2022-09-06T08:03:22.068Z,13.10
2022-09-06T08:13:52.900Z,13.50
2022-09-06T08:19:02.677Z,13.60
2022-09-06T08:24:09.895Z,13.80
2022-09-06T08:29:14.452Z,14.00
2022-09-06T08:34:17.520Z,14.16
2022-09-06T08:39:20.518Z,14.30
2022-09-06T08:44:59.490Z,14.54
2022-09-06T08:50:07.790Z,14.80
2022-09-06T08:55:49.455Z,15.00
2022-09-06T09:01:02.370Z,15.10
2022-09-06T09:06:10.246Z,15.30
2022-09-06T09:11:23.403Z,15.60
2022-09-06T09:16:27.179Z,15.80
2022-09-06T09:21:36.686Z,16.00
2022-09-06T09:26:52.052Z,16.30
2022-09-06T09:31:56.732Z,16.50
2022-09-06T09:42:47.195Z,16.80
2022-09-06T09:47:50.253Z,16.90
2022-09-06T09:52:53.878Z,17.00
2022-09-06T09:57:57.088Z,17.28
2022-09-06T10:03:00.232Z,17.50
2022-09-06T10:08:03.338Z,17.60
2022-09-06T10:13:31.769Z,17.40
2022-09-06T10:18:37.963Z,17.36
2022-09-06T10:24:27.740Z,17.70
2022-09-06T10:29:54.427Z,17.80
2022-09-06T10:35:21.382Z,17.90
2022-09-06T10:41:06.131Z,18.00
2022-09-06T10:46:16.205Z,18.30
2022-09-06T10:51:21.476Z,18.20
2022-09-06T10:56:52.817Z,18.30
2022-09-06T11:01:55.850Z,18.20
2022-09-06T11:07:24.488Z,18.40
2022-09-06T11:12:37.735Z,18.80
2022-09-06T11:18:33.103Z,19.00
2022-09-06T11:24:26.903Z,19.30
2022-09-06T11:29:34.549Z,19.70
2022-09-06T11:34:38.255Z,19.70
2022-09-06T11:45:06.904Z,20.00
2022-09-06T11:50:26.975Z,20.22
2022-09-06T11:55:42.531Z,20.70
2022-09-06T12:01:07.010Z,21.14
2022-09-06T12:06:31.933Z,21.30
2022-09-06T12:11:43.173Z,21.80
2022-09-06T12:17:07.443Z,22.30
2022-09-06T12:22:36.139Z,22.92
2022-09-06T12:27:50.865Z,23.36
2022-09-06T12:32:54.099Z,23.60
2022-09-06T12:38:06.969Z,23.50
2022-09-06T12:43:14.675Z,24.10
2022-09-06T12:48:33.558Z,24.50
2022-09-06T12:53:37.066Z,24.80
2022-09-06T12:58:40.456Z,24.80
2022-09-06T13:04:05.257Z,24.70
2022-09-06T13:09:14.413Z,24.26
2022-09-06T13:14:28.141Z,23.70
2022-09-06T13:19:40.589Z,23.30
2022-09-06T13:24:49.876Z,22.66
2022-09-06T13:30:09.287Z,22.00
2022-09-06T13:35:24.703Z,21.70
2022-09-06T13:41:09.812Z,21.30
2022-09-06T13:46:11.027Z,21.06
2022-09-06T13:51:14.143Z,21.00
2022-09-06T13:56:17.347Z,21.10
2022-09-06T14:01:20.603Z,21.58
2022-09-06T14:06:24.050Z,22.30
2022-09-06T14:11:27.102Z,22.94
2022-09-06T14:16:30.403Z,23.30
2022-09-06T14:21:33.523Z,23.20
2022-09-06T14:26:37.595Z,23.30
2022-09-06T14:31:40.799Z,23.40
2022-09-06T14:36:43.883Z,23.38
2022-09-06T14:41:47.142Z,23.52
2022-09-06T14:46:53.546Z,23.60
2022-09-06T14:51:56.702Z,23.78
2022-09-06T14:57:00.148Z,23.58
2022-09-06T15:02:04.095Z,23.68
2022-09-06T15:07:08.887Z,23.60
2022-09-06T15:12:12.057Z,23.60
2022-09-06T15:17:15.199Z,23.40
2022-09-06T15:22:18.251Z,23.40
2022-09-06T15:27:21.820Z,23.34
2022-09-06T15:32:25.342Z,23.20
2022-09-06T15:37:28.443Z,23.10
2022-09-06T15:42:31.508Z,22.90
2022-09-06T15:47:35.611Z,22.50
2022-09-06T15:52:38.592Z,22.10
2022-09-06T15:57:41.596Z,22.00
2022-09-06T16:02:44.950Z,22.10
2022-09-06T16:07:48.102Z,21.80
2022-09-06T16:12:53.388Z,21.30
2022-09-06T16:17:57.922Z,20.90
2022-09-06T16:23:00.993Z,20.60
2022-09-06T16:28:04.036Z,20.20
2022-09-06T16:33:07.076Z,19.90
2022-09-06T16:38:10.370Z,19.70
2022-09-06T16:43:14.268Z,19.60
2022-09-06T16:48:17.254Z,19.70
2022-09-06T16:53:22.179Z,19.70
2022-09-06T16:58:25.634Z,19.60
2022-09-06T17:03:29.198Z,19.40
2022-09-06T17:08:34.159Z,19.00
2022-09-06T17:13:38.360Z,18.50
2022-09-06T17:18:41.942Z,18.30
2022-09-06T17:23:45.044Z,18.30
2022-09-06T17:28:50.335Z,18.20
2022-09-06T17:33:54.032Z,18.10
2022-09-06T17:39:08.085Z,17.80
2022-09-06T17:44:14.544Z,17.80
2022-09-06T17:49:18.940Z,17.70
2022-09-06T17:54:22.356Z,17.50
2022-09-06T17:59:25.679Z,17.40
2022-09-06T18:04:28.886Z,17.16
2022-09-06T18:09:32.088Z,16.80
2022-09-06T18:14:35.301Z,16.54
2022-09-06T18:19:38.499Z,16.40
2022-09-06T18:24:41.596Z,16.24
2022-09-06T18:29:44.655Z,16.10
2022-09-06T18:34:47.747Z,15.90
2022-09-06T18:39:51.239Z,15.70
2022-09-06T18:44:56.051Z,15.40
2022-09-06T18:49:59.099Z,15.20
2022-09-06T18:55:02.162Z,14.90
2022-09-06T19:00:07.608Z,14.70
2022-09-06T19:05:10.667Z,14.60
2022-09-06T19:10:13.831Z,14.40
2022-09-06T19:15:16.982Z,14.20
2022-09-06T19:20:21.872Z,14.00
2022-09-06T19:25:25.189Z,13.80
2022-09-06T19:30:28.204Z,13.68
2022-09-06T19:35:31.243Z,13.52
2022-09-06T19:40:34.306Z,13.40
2022-09-06T19:45:39.527Z,13.30
2022-09-06T19:50:42.703Z,13.20
2022-09-06T19:55:45.731Z,13.20
2022-09-06T20:00:48.861Z,13.10
2022-09-06T20:06:00.690Z,13.00
2022-09-06T20:11:07.818Z,12.96
2022-09-06T20:16:13.155Z,12.90
2022-09-06T20:21:21.185Z,12.68
2022-09-06T20:26:27.660Z,12.50
2022-09-06T20:31:33.074Z,12.40
2022-09-06T20:36:36.585Z,12.20
2022-09-06T20:41:39.732Z,12.10
2022-09-06T20:46:42.936Z,12.00
2022-09-06T20:51:46.009Z,11.96
2022-09-06T20:56:49.105Z,11.90
2022-09-06T21:01:53.666Z,11.80
2022-09-06T21:06:56.741Z,11.78
2022-09-06T21:12:00.219Z,11.70
2022-09-06T21:17:03.343Z,11.50
2022-09-06T21:22:06.657Z,11.32
2022-09-06T21:27:12.184Z,11.30
2022-09-06T21:32:15.295Z,11.20
2022-09-06T21:37:18.964Z,11.10
2022-09-06T21:42:22.127Z,10.98
2022-09-06T21:47:25.198Z,10.80
2022-09-06T21:52:32.571Z,10.70
2022-09-06T21:57:35.745Z,10.70
2022-09-06T22:02:39.228Z,10.62
2022-09-06T22:07:42.356Z,10.50
2022-09-06T22:12:45.478Z,10.40
2022-09-06T22:17:49.730Z,10.20
2022-09-06T22:22:52.760Z,10.10
2022-09-06T22:27:55.866Z,9.96
2022-09-06T22:32:58.930Z,9.80
2022-09-06T22:38:02.666Z,9.70
2022-09-06T22:43:05.760Z,9.60
2022-09-06T22:48:08.766Z,9.60
2022-09-06T22:53:12.484Z,9.52
2022-09-06T22:58:15.533Z,9.40
2022-09-06T23:03:18.653Z,9.30
2022-09-06T23:08:21.702Z,9.16
2022-09-06T23:13:24.732Z,9.00
2022-09-06T23:18:27.769Z,8.90
2022-09-06T23:23:31.353Z,8.80
2022-09-06T23:28:35.886Z,8.82
2022-09-06T23:33:40.611Z,8.80
2022-09-06T23:38:44.841Z,8.70
2022-09-06T23:43:47.948Z,8.60
2022-09-06T23:48:50.962Z,8.50
2022-09-06T23:53:53.996Z,8.40
2022-09-06T23:58:57.031Z,8.30
